createdAt,value
2022-08-19T00:00:15.725Z,100517.20
2022-08-19T00:03:04.846Z,100515.40
2022-08-19T00:05:33.110Z,100519.60
2022-08-19T00:08:01.025Z,100523.80
2022-08-19T00:10:28.991Z,100520.00
2022-08-19T00:12:57.242Z,100517.80
2022-08-19T00:15:25.151Z,100517.20
2022-08-19T00:17:53.025Z,100516.80
2022-08-19T00:20:22.678Z,100520.80
2022-08-19T00:22:51.246Z,100529.40
2022-08-19T00:25:30.058Z,100536.80
2022-08-19T00:28:00.476Z,100541.40
2022-08-19T00:30:31.430Z,100544.60
2022-08-19T00:33:00.474Z,100542.60
2022-08-19T00:35:28.469Z,100540.40
2022-08-19T00:37:57.253Z,100542.40
2022-08-19T00:40:26.211Z,100537.20
2022-08-19T00:42:55.010Z,100539.00
2022-08-19T00:45:31.766Z,100543.00
2022-08-19T00:48:05.299Z,100543.40
2022-08-19T00:50:51.931Z,100545.60
2022-08-19T00:53:27.528Z,100546.40
2022-08-19T00:56:00.510Z,100545.40
2022-08-19T00:58:34.731Z,100541.80
2022-08-19T01:01:05.555Z,100539.20
2022-08-19T01:03:57.001Z,100544.60
2022-08-19T01:06:22.384Z,100542.40
2022-08-19T01:08:50.380Z,100542.80
2022-08-19T01:11:18.368Z,100542.00
2022-08-19T01:13:49.995Z,100546.40
2022-08-19T01:16:23.557Z,100548.80
2022-08-19T01:18:51.832Z,100546.80
2022-08-19T01:21:33.579Z,100546.20
2022-08-19T01:24:01.856Z,100538.80
2022-08-19T01:26:31.278Z,100537.00
2022-08-19T01:29:02.213Z,100542.60
2022-08-19T01:31:33.434Z,100543.00
2022-08-19T01:34:03.357Z,100541.80
2022-08-19T01:36:50.170Z,100535.40
2022-08-19T01:39:25.232Z,100536.80
2022-08-19T01:41:56.198Z,100529.80
2022-08-19T01:44:25.298Z,100526.00
2022-08-19T01:46:53.534Z,100527.80
2022-08-19T01:49:24.720Z,100530.80
2022-08-19T01:51:55.093Z,100537.00
2022-08-19T01:54:27.585Z,100539.40
2022-08-19T01:57:12.121Z,100546.20
2022-08-19T01:59:43.939Z,100541.20
2022-08-19T02:02:11.834Z,100538.80
2022-08-19T02:04:39.871Z,100531.60
2022-08-19T02:07:09.214Z,100526.40
2022-08-19T02:09:37.415Z,100529.80
2022-08-19T02:12:08.696Z,100530.40
2022-08-19T02:14:37.867Z,100521.40
2022-08-19T02:17:05.762Z,100525.80
2022-08-19T02:19:34.120Z,100524.80
2022-08-19T02:22:02.367Z,100524.80
2022-08-19T02:24:30.213Z,100522.20
2022-08-19T02:26:58.523Z,100519.00
2022-08-19T02:29:26.475Z,100518.40
2022-08-19T02:31:54.648Z,100515.20
2022-08-19T02:34:22.874Z,100510.20
2022-08-19T02:36:51.834Z,100506.60
2022-08-19T02:39:20.625Z,100511.40
2022-08-19T02:41:48.449Z,100515.60
2022-08-19T02:44:30.929Z,100514.40
2022-08-19T02:46:59.721Z,100514.20
2022-08-19T02:49:27.538Z,100518.40
2022-08-19T02:51:55.459Z,100515.60
2022-08-19T02:54:23.313Z,100516.40
2022-08-19T02:56:51.224Z,100521.40
2022-08-19T02:59:20.316Z,100523.60
2022-08-19T03:01:51.200Z,100524.80
2022-08-19T03:04:20.572Z,100526.40
2022-08-19T03:06:48.815Z,100528.20
2022-08-19T03:09:20.856Z,100524.40
2022-08-19T03:11:49.351Z,100517.00
2022-08-19T03:14:20.720Z,100515.20
2022-08-19T03:16:53.506Z,100515.60
2022-08-19T03:19:25.075Z,100518.20
2022-08-19T03:21:53.683Z,100515.80
2022-08-19T03:24:22.483Z,100518.00
2022-08-19T03:26:58.412Z,100519.40
2022-08-19T03:29:30.687Z,100516.60
2022-08-19T03:32:02.075Z,100520.20
2022-08-19T03:34:37.349Z,100523.40
2022-08-19T03:37:15.440Z,100524.80
2022-08-19T03:39:43.654Z,100524.60
2022-08-19T03:42:33.112Z,100522.20
2022-08-19T03:45:00.571Z,100515.80
2022-08-19T03:47:28.371Z,100518.20
2022-08-19T03:49:56.634Z,100511.00
2022-08-19T03:52:24.488Z,100511.20
2022-08-19T03:54:52.890Z,100505.20
2022-08-19T03:57:20.691Z,100511.40
2022-08-19T03:59:52.289Z,100513.20
2022-08-19T04:02:20.229Z,100511.20
2022-08-19T04:04:48.256Z,100508.00
2022-08-19T04:07:17.406Z,100511.00
2022-08-19T04:09:45.397Z,100520.40
2022-08-19T04:12:13.271Z,100521.80
2022-08-19T04:14:41.083Z,100524.60
2022-08-19T04:17:08.948Z,100524.20
2022-08-19T04:19:38.177Z,100524.00
2022-08-19T04:22:06.580Z,100524.00
2022-08-19T04:24:36.130Z,100526.80
2022-08-19T04:27:07.235Z,100522.60
2022-08-19T04:29:35.140Z,100524.00
2022-08-19T04:32:09.459Z,100524.80
2022-08-19T04:35:01.478Z,100524.40
2022-08-19T04:37:34.771Z,100521.40
2022-08-19T04:40:26.189Z,100522.80
2022-08-19T04:42:55.382Z,100516.00
2022-08-19T04:45:23.737Z,100514.00
2022-08-19T04:48:26.932Z,100509.20
2022-08-19T04:50:49.715Z,100513.20
2022-08-19T04:53:18.209Z,100517.40
2022-08-19T04:55:46.017Z,100514.00
2022-08-19T04:58:13.951Z,100516.60
2022-08-19T05:00:42.574Z,100521.60
2022-08-19T05:03:11.557Z,100525.80
2022-08-19T05:05:45.285Z,100529.00
2022-08-19T05:08:19.702Z,100529.40
2022-08-19T05:10:59.590Z,100526.40
2022-08-19T05:13:28.071Z,100524.60
2022-08-19T05:15:59.392Z,100523.20
2022-08-19T05:19:06.221Z,100519.80
2022-08-19T05:21:54.607Z,100518.60
2022-08-19T05:24:24.022Z,100523.20
2022-08-19T05:26:54.288Z,100515.80
2022-08-19T05:29:22.572Z,100514.60
2022-08-19T05:31:52.524Z,100514.40
2022-08-19T05:34:27.052Z,100513.40
2022-08-19T05:36:59.622Z,100514.00
2022-08-19T05:39:30.602Z,100521.00
2022-08-19T05:42:04.638Z,100524.60
2022-08-19T05:44:36.225Z,100530.40
2022-08-19T05:47:07.778Z,100533.20
2022-08-19T05:49:37.996Z,100536.80
2022-08-19T05:52:12.170Z,100536.00
2022-08-19T05:54:43.714Z,100531.00
2022-08-19T05:57:11.781Z,100538.00
2022-08-19T05:59:41.457Z,100538.20
2022-08-19T06:02:09.330Z,100540.40
2022-08-19T06:04:37.281Z,100551.20
2022-08-19T06:07:11.959Z,100552.20
2022-08-19T06:09:43.645Z,100556.00
2022-08-19T06:12:34.248Z,100556.00
2022-08-19T06:15:07.498Z,100556.40
2022-08-19T06:17:36.335Z,100556.60
2022-08-19T06:20:08.670Z,100552.80
2022-08-19T06:22:43.170Z,100554.60
2022-08-19T06:25:12.632Z,100555.80
2022-08-19T06:27:58.520Z,100551.20
2022-08-19T06:30:29.855Z,100549.80
2022-08-19T06:32:57.790Z,100548.00
2022-08-19T06:35:26.473Z,100548.20
2022-08-19T06:37:54.983Z,100551.60
2022-08-19T06:40:23.602Z,100549.00
2022-08-19T06:42:54.887Z,100556.40
2022-08-19T06:45:34.451Z,100548.20
2022-08-19T06:48:04.290Z,100545.60
2022-08-19T06:50:32.028Z,100545.00
2022-08-19T06:53:03.597Z,100547.20
2022-08-19T06:55:33.460Z,100542.80
2022-08-19T06:58:05.795Z,100535.60
2022-08-19T07:00:35.081Z,100532.20
2022-08-19T07:03:07.705Z,100536.40
2022-08-19T07:05:45.579Z,100532.00
2022-08-19T07:08:14.994Z,100542.00
2022-08-19T07:10:47.249Z,100543.40
2022-08-19T07:13:15.363Z,100543.20
2022-08-19T07:15:43.394Z,100545.60
2022-08-19T07:18:11.747Z,100542.00
2022-08-19T07:20:42.847Z,100538.60
2022-08-19T07:25:32.478Z,100541.80
2022-08-19T07:28:29.122Z,100548.60
2022-08-19T07:31:44.934Z,100548.00
2022-08-19T07:34:43.040Z,100542.60
2022-08-19T07:37:57.340Z,100542.40
2022-08-19T07:40:36.469Z,100544.60
2022-08-19T07:43:12.335Z,100536.40
2022-08-19T07:45:45.761Z,100534.00
2022-08-19T07:48:18.476Z,100535.40
2022-08-19T07:50:46.698Z,100532.40
2022-08-19T07:53:16.182Z,100537.00
2022-08-19T07:55:44.239Z,100535.80
2022-08-19T07:58:16.891Z,100536.00
2022-08-19T08:00:47.880Z,100532.40
2022-08-19T08:03:20.230Z,100538.40
2022-08-19T08:06:06.827Z,100534.40
2022-08-19T08:08:53.379Z,100531.80
2022-08-19T08:11:23.866Z,100523.60
2022-08-19T08:14:01.433Z,100529.00
2022-08-19T08:16:47.370Z,100528.20
2022-08-19T08:19:25.323Z,100528.60
2022-08-19T08:22:15.335Z,100526.80
2022-08-19T08:24:48.918Z,100521.00
2022-08-19T08:27:17.296Z,100519.40
2022-08-19T08:29:46.052Z,100514.20
2022-08-19T08:32:14.831Z,100514.40
2022-08-19T08:34:44.213Z,100509.00
2022-08-19T08:37:12.361Z,100508.60
2022-08-19T08:39:44.229Z,100513.40
2022-08-19T08:42:28.649Z,100512.80
2022-08-19T08:45:16.940Z,100506.60
2022-08-19T08:47:58.603Z,100511.20
2022-08-19T08:50:44.756Z,100505.80
2022-08-19T08:53:27.462Z,100498.20
2022-08-19T08:56:14.070Z,100504.20
2022-08-19T08:59:23.895Z,100501.20
2022-08-19T09:01:59.638Z,100499.40
2022-08-19T09:04:33.011Z,100497.40
2022-08-19T09:07:47.296Z,100492.20
2022-08-19T09:10:35.813Z,100487.80
2022-08-19T09:13:43.150Z,100489.00
2022-08-19T09:16:39.432Z,100490.20
2022-08-19T09:19:39.997Z,100488.00
2022-08-19T09:22:36.516Z,100490.00
2022-08-19T09:31:28.784Z,100486.60
2022-08-19T09:36:36.218Z,100479.00
2022-08-19T09:39:36.260Z,100479.60
2022-08-19T09:42:30.254Z,100476.00
2022-08-19T09:45:48.123Z,100478.20
2022-08-19T09:48:36.666Z,100481.60
2022-08-19T09:51:12.560Z,100474.60
2022-08-19T09:53:42.937Z,100478.40
2022-08-19T09:56:13.098Z,100476.80
2022-08-19T09:58:42.102Z,100479.20
2022-08-19T10:01:11.860Z,100477.60
2022-08-19T10:03:39.869Z,100475.60
2022-08-19T10:06:15.233Z,100475.20
2022-08-19T10:08:50.392Z,100473.20
2022-08-19T10:11:28.710Z,100473.40
2022-08-19T10:14:15.129Z,100470.00
2022-08-19T10:16:45.257Z,100475.40
2022-08-19T10:19:25.427Z,100470.20
2022-08-19T10:22:00.197Z,100466.40
2022-08-19T10:24:29.294Z,100460.40
2022-08-19T10:27:01.528Z,100459.00
2022-08-19T10:29:46.434Z,100454.40
2022-08-19T10:32:34.049Z,100450.40
2022-08-19T10:39:17.241Z,100461.80
2022-08-19T10:41:59.116Z,100454.00
2022-08-19T10:44:36.765Z,100451.60
2022-08-19T10:47:57.884Z,100454.60
2022-08-19T10:54:01.260Z,100439.20
2022-08-19T10:56:51.878Z,100441.20
2022-08-19T10:59:33.786Z,100436.80
2022-08-19T11:02:08.203Z,100439.40
2022-08-19T11:04:36.776Z,100440.00
2022-08-19T11:07:07.106Z,100433.20
2022-08-19T11:09:52.387Z,100429.20
2022-08-19T11:12:25.375Z,100423.00
2022-08-19T11:14:54.430Z,100413.60
2022-08-19T11:17:24.916Z,100410.00
2022-08-19T11:19:52.716Z,100406.20
2022-08-19T11:22:21.194Z,100401.60
2022-08-19T11:24:49.121Z,100402.20
2022-08-19T11:27:17.084Z,100400.80
2022-08-19T11:29:52.006Z,100411.60
2022-08-19T11:32:25.775Z,100403.40
2022-08-19T11:35:24.305Z,100406.60
2022-08-19T11:37:53.454Z,100407.80
2022-08-19T11:44:16.168Z,100393.60
2022-08-19T11:46:47.802Z,100399.60
2022-08-19T11:49:22.689Z,100400.80
2022-08-19T11:51:52.029Z,100391.60
2022-08-19T11:54:22.178Z,100392.80
2022-08-19T11:56:50.290Z,100384.80
2022-08-19T11:59:18.190Z,100381.60
2022-08-19T12:01:46.195Z,100386.60
2022-08-19T12:04:14.221Z,100381.20
2022-08-19T12:06:42.778Z,100380.20
2022-08-19T12:09:12.248Z,100376.40
2022-08-19T12:11:41.607Z,100371.60
2022-08-19T12:14:15.217Z,100372.40
2022-08-19T12:16:51.688Z,100365.40
2022-08-19T12:19:22.308Z,100364.40
2022-08-19T12:21:52.554Z,100369.20
2022-08-19T12:24:24.320Z,100362.00
2022-08-19T12:26:53.622Z,100359.60
2022-08-19T12:29:29.745Z,100357.60
2022-08-19T12:32:03.989Z,100348.80
2022-08-19T12:34:44.109Z,100359.60
2022-08-19T12:37:18.756Z,100355.20
2022-08-19T12:39:48.858Z,100347.40
2022-08-19T12:42:19.342Z,100353.00
2022-08-19T12:44:54.850Z,100350.40
2022-08-19T13:02:13.738Z,100336.00
2022-08-19T13:05:00.020Z,100324.80
2022-08-19T13:07:39.173Z,100329.20
2022-08-19T13:10:10.704Z,100324.00
2022-08-19T13:12:40.440Z,100314.00
2022-08-19T13:15:19.422Z,100316.40
2022-08-19T13:18:18.827Z,100313.60
2022-08-19T13:21:08.787Z,100318.80
2022-08-19T13:23:45.002Z,100320.20
2022-08-19T13:26:16.912Z,100322.40
2022-08-19T13:29:05.037Z,100316.40
2022-08-19T13:31:56.095Z,100310.80
2022-08-19T13:34:36.166Z,100307.40
2022-08-19T13:37:05.474Z,100301.00
2022-08-19T13:39:35.937Z,100292.40
2022-08-19T13:42:09.619Z,100298.60
2022-08-19T13:44:40.253Z,100293.60
2022-08-19T13:47:09.391Z,100294.40
2022-08-19T13:49:37.658Z,100299.60
2022-08-19T13:52:06.923Z,100296.20
2022-08-19T13:55:08.469Z,100297.00
2022-08-19T13:57:40.179Z,100293.20
2022-08-19T14:00:37.783Z,100292.80
2022-08-19T14:03:12.483Z,100292.60
2022-08-19T14:06:14.395Z,100297.80
2022-08-19T14:08:48.149Z,100299.20
2022-08-19T14:11:21.124Z,100295.40
2022-08-19T14:13:51.959Z,100295.00
2022-08-19T14:16:25.358Z,100299.40
2022-08-19T14:19:13.784Z,100292.00
2022-08-19T14:21:45.652Z,100295.60
2022-08-19T14:24:14.545Z,100294.40
2022-08-19T14:26:44.533Z,100298.20
2022-08-19T14:29:24.965Z,100292.40
2022-08-19T14:32:01.896Z,100298.40
2022-08-19T14:34:29.858Z,100297.20
2022-08-19T14:37:00.308Z,100298.20
2022-08-19T14:39:30.048Z,100305.80
2022-08-19T14:42:02.393Z,100303.80
2022-08-19T14:44:35.035Z,100303.60
2022-08-19T14:47:03.540Z,100295.80
2022-08-19T14:49:35.031Z,100301.00
2022-08-19T14:52:09.685Z,100294.00
2022-08-19T14:54:37.568Z,100290.60
2022-08-19T14:57:05.557Z,100290.80
2022-08-19T14:59:35.257Z,100288.80
2022-08-19T15:02:34.246Z,100293.00
2022-08-19T15:04:58.493Z,100291.00
2022-08-19T15:07:29.117Z,100289.60
2022-08-19T15:09:59.077Z,100288.60
2022-08-19T15:12:27.022Z,100283.60
2022-08-19T15:14:56.996Z,100280.80
2022-08-19T15:17:43.353Z,100277.80
2022-08-19T15:20:19.810Z,100278.20
2022-08-19T15:22:48.200Z,100273.40
2022-08-19T15:25:19.908Z,100269.60
2022-08-19T15:27:48.889Z,100269.60
2022-08-19T15:30:25.536Z,100267.40
2022-08-19T15:32:54.773Z,100262.80
2022-08-19T15:35:24.489Z,100263.40
2022-08-19T15:37:56.111Z,100267.80
2022-08-19T15:40:28.309Z,100269.80
2022-08-19T15:42:57.083Z,100270.60
2022-08-19T15:45:32.268Z,100272.60
2022-08-19T15:48:06.406Z,100268.20
2022-08-19T15:50:35.921Z,100262.60
2022-08-19T15:53:09.443Z,100260.60
2022-08-19T15:55:45.829Z,100256.80
2022-08-19T15:58:34.385Z,100255.00
2022-08-19T16:01:27.135Z,100248.40
2022-08-19T16:04:16.862Z,100247.00
2022-08-19T16:06:58.454Z,100242.60
2022-08-19T16:09:31.175Z,100248.80
2022-08-19T16:12:02.774Z,100245.40
2022-08-19T16:14:35.421Z,100240.40
2022-08-19T16:17:04.653Z,100249.60
2022-08-19T16:19:33.699Z,100249.40
2022-08-19T16:22:01.984Z,100250.20
2022-08-19T16:24:31.038Z,100248.80
2022-08-19T16:27:01.756Z,100251.00
2022-08-19T16:29:34.414Z,100248.00
2022-08-19T16:32:11.603Z,100246.80
2022-08-19T16:34:43.145Z,100253.80
2022-08-19T16:37:12.271Z,100243.60
2022-08-19T16:39:41.251Z,100248.60
2022-08-19T16:42:16.192Z,100248.20
2022-08-19T16:44:45.981Z,100252.80
2022-08-19T16:47:17.117Z,100252.20
2022-08-19T16:49:52.265Z,100247.60
2022-08-19T16:52:27.321Z,100254.20
2022-08-19T16:54:55.398Z,100250.00
2022-08-19T16:57:24.285Z,100256.20
2022-08-19T16:59:53.109Z,100258.00
2022-08-19T17:02:29.579Z,100264.40
2022-08-19T17:04:59.327Z,100262.40
2022-08-19T17:07:33.060Z,100259.00
2022-08-19T17:10:05.128Z,100262.40
2022-08-19T17:12:33.291Z,100271.00
2022-08-19T17:15:02.962Z,100278.00
2022-08-19T17:17:32.083Z,100279.80
2022-08-19T17:20:03.640Z,100283.60
2022-08-19T17:22:33.346Z,100285.60
2022-08-19T17:25:02.205Z,100282.00
2022-08-19T17:27:32.664Z,100283.20
2022-08-19T17:30:04.860Z,100286.20
2022-08-19T17:32:35.114Z,100283.40
2022-08-19T17:35:04.941Z,100282.20
2022-08-19T17:37:34.338Z,100283.80
2022-08-19T17:40:09.357Z,100281.40
2022-08-19T17:42:38.203Z,100280.00
2022-08-19T17:45:08.125Z,100282.60
2022-08-19T17:47:37.970Z,100282.60
2022-08-19T17:50:10.854Z,100277.80
2022-08-19T17:52:40.589Z,100274.80
2022-08-19T17:55:10.604Z,100271.20
2022-08-19T17:57:46.581Z,100273.40
2022-08-19T18:00:17.009Z,100267.20
2022-08-19T18:02:56.611Z,100266.80
2022-08-19T18:05:40.800Z,100265.80
2022-08-19T18:08:09.994Z,100266.60
2022-08-19T18:10:39.561Z,100268.00
2022-08-19T18:13:17.005Z,100267.40
2022-08-19T18:15:47.685Z,100272.80
2022-08-19T18:18:16.037Z,100273.80
2022-08-19T18:20:45.922Z,100276.40
2022-08-19T18:23:44.009Z,100278.20
2022-08-19T18:26:04.026Z,100276.80
2022-08-19T18:28:33.285Z,100273.60
2022-08-19T18:31:03.961Z,100278.00
2022-08-19T18:33:32.090Z,100278.00
2022-08-19T18:36:00.295Z,100278.20
2022-08-19T18:38:47.067Z,100272.20
2022-08-19T18:41:37.190Z,100274.80
2022-08-19T18:44:28.530Z,100271.80
2022-08-19T18:47:17.653Z,100278.40
2022-08-19T18:49:45.714Z,100280.00
2022-08-19T18:52:17.273Z,100279.80
2022-08-19T18:54:48.645Z,100278.00
2022-08-19T18:57:18.638Z,100280.40
2022-08-19T18:59:48.241Z,100282.80
2022-08-19T19:02:22.698Z,100283.20
2022-08-19T19:04:53.423Z,100290.20
2022-08-19T19:07:31.570Z,100290.20
2022-08-19T19:13:51.051Z,100297.20
2022-08-19T19:16:38.835Z,100298.80
2022-08-19T19:19:19.531Z,100300.80
2022-08-19T19:21:59.183Z,100310.20
2022-08-19T19:24:33.918Z,100311.80
2022-08-19T19:27:08.007Z,100314.80
2022-08-19T19:29:37.539Z,100315.20
2022-08-19T19:32:18.516Z,100314.40
2022-08-19T19:34:46.438Z,100317.80
2022-08-19T19:37:14.878Z,100317.40
2022-08-19T19:39:46.292Z,100320.20
2022-08-19T19:42:28.175Z,100320.20
2022-08-19T19:45:00.713Z,100317.40
2022-08-19T19:47:30.897Z,100318.00
2022-08-19T19:50:18.336Z,100323.60
2022-08-19T19:52:47.263Z,100316.40
2022-08-19T19:55:20.586Z,100316.00
2022-08-19T19:57:49.308Z,100315.40
2022-08-19T20:00:19.161Z,100317.40
2022-08-19T20:02:50.420Z,100320.80
2022-08-19T20:05:21.776Z,100316.60
2022-08-19T20:08:12.260Z,100316.00
2022-08-19T20:10:44.155Z,100314.00
2022-08-19T20:13:15.798Z,100317.00
2022-08-19T20:15:43.910Z,100323.60
2022-08-19T20:18:14.793Z,100319.40
2022-08-19T20:20:46.061Z,100328.20
2022-08-19T20:23:13.963Z,100330.00
2022-08-19T20:25:42.179Z,100331.80
2022-08-19T20:28:12.146Z,100332.40
2022-08-19T20:30:46.342Z,100337.60
2022-08-19T20:33:16.870Z,100333.60
2022-08-19T20:35:46.497Z,100334.60
2022-08-19T20:38:17.314Z,100334.20
2022-08-19T20:40:45.645Z,100330.40
2022-08-19T20:43:15.327Z,100330.20
2022-08-19T20:45:43.598Z,100325.00
2022-08-19T20:48:12.630Z,100331.80
2022-08-19T20:50:41.115Z,100334.00
2022-08-19T20:53:19.848Z,100335.40
2022-08-19T20:55:49.782Z,100338.20
2022-08-19T20:58:21.856Z,100343.40
2022-08-19T21:00:53.421Z,100331.40
2022-08-19T21:03:27.024Z,100334.40
2022-08-19T21:05:56.588Z,100337.80
2022-08-19T21:08:27.112Z,100339.40
2022-08-19T21:10:58.181Z,100340.80
2022-08-19T21:13:26.172Z,100344.20
2022-08-19T21:15:54.194Z,100343.80
2022-08-19T21:18:27.057Z,100340.80
2022-08-19T21:20:56.658Z,100341.00
2022-08-19T21:23:29.297Z,100345.20
2022-08-19T21:26:00.971Z,100348.00
2022-08-19T21:28:35.945Z,100347.20
2022-08-19T21:31:07.327Z,100344.20
2022-08-19T21:33:35.261Z,100346.40
2022-08-19T21:36:04.805Z,100349.60
2022-08-19T21:38:33.368Z,100348.40
2022-08-19T21:41:03.596Z,100347.80
2022-08-19T21:43:36.653Z,100347.60
2022-08-19T21:46:06.343Z,100348.40
2022-08-19T21:48:35.359Z,100347.20
2022-08-19T21:51:03.468Z,100347.80
2022-08-19T21:53:34.003Z,100345.60
2022-08-19T21:56:07.002Z,100347.00
2022-08-19T21:58:38.657Z,100352.60
2022-08-19T22:01:08.186Z,100353.60
2022-08-19T22:03:38.831Z,100353.00
2022-08-19T22:06:07.357Z,100351.40
2022-08-19T22:08:36.655Z,100351.00
2022-08-19T22:11:05.099Z,100343.00
2022-08-19T22:13:40.527Z,100338.40
2022-08-19T22:16:10.160Z,100337.80
2022-08-19T22:18:38.438Z,100341.00
2022-08-19T22:21:11.271Z,100337.80
2022-08-19T22:23:42.083Z,100336.00
2022-08-19T22:26:12.288Z,100338.20
2022-08-19T22:28:40.938Z,100335.60
2022-08-19T22:31:11.120Z,100333.00
2022-08-19T22:33:39.503Z,100327.80
2022-08-19T22:36:08.236Z,100326.60
2022-08-19T22:38:38.716Z,100328.20
2022-08-19T22:41:08.010Z,100331.00
2022-08-19T22:43:37.721Z,100319.40
2022-08-19T22:46:17.254Z,100317.40
2022-08-19T22:48:47.852Z,100317.00
2022-08-19T22:51:43.093Z,100314.20
2022-08-19T22:54:10.971Z,100303.60
2022-08-19T22:56:38.917Z,100299.80
2022-08-19T22:59:08.711Z,100294.80
2022-08-19T23:01:36.715Z,100299.00
2022-08-19T23:04:05.831Z,100300.80
2022-08-19T23:06:36.366Z,100306.60
2022-08-19T23:09:08.941Z,100308.60
2022-08-19T23:11:41.966Z,100318.20
2022-08-19T23:14:12.712Z,100321.80
2022-08-19T23:16:41.930Z,100322.20
2022-08-19T23:19:11.801Z,100321.40
2022-08-19T23:21:42.231Z,100320.40
2022-08-19T23:24:11.956Z,100329.40
2022-08-19T23:27:00.295Z,100328.40
2022-08-19T23:29:47.311Z,100329.00
2022-08-19T23:32:19.047Z,100336.60
2022-08-19T23:34:47.693Z,100342.60
2022-08-19T23:37:16.192Z,100345.00
2022-08-19T23:39:45.258Z,100340.40
2022-08-19T23:42:14.159Z,100344.40
2022-08-19T23:44:51.538Z,100348.20
2022-08-19T23:47:21.578Z,100341.80
2022-08-19T23:49:50.829Z,100349.60
2022-08-19T23:52:19.190Z,100352.00
2022-08-19T23:54:47.169Z,100353.40
2022-08-19T23:57:15.204Z,100350.80
2022-08-19T23:59:45.692Z,100357.80
